createdAt,value
2018-12-02T00:00:36.511Z,100010.83
2018-12-02T00:03:05.270Z,100003.14
2018-12-02T00:05:34.602Z,100004.81
2018-12-02T00:08:08.865Z,100001.75
2018-12-02T00:10:38.016Z,100002.09
2018-12-02T00:13:07.354Z,99994.25
2018-12-02T00:15:36.550Z,99996.44
2018-12-02T00:18:05.935Z,99989.41
2018-12-02T00:20:35.472Z,99989.77
2018-12-02T00:23:04.483Z,99986.80
2018-12-02T00:25:33.741Z,99978.72
2018-12-02T00:28:03.549Z,99979.09
2018-12-02T00:30:32.428Z,99966.02
2018-12-02T00:33:01.707Z,99970.25
2018-12-02T00:35:30.617Z,99962.67
2018-12-02T00:38:00.024Z,99952.15
2018-12-02T00:40:29.588Z,99957.41
2018-12-02T00:42:58.499Z,99950.11
2018-12-02T00:45:27.437Z,99951.67
2018-12-02T00:47:56.683Z,99953.24
2018-12-02T00:50:25.620Z,99940.90
2018-12-02T00:52:54.877Z,99940.22
2018-12-02T00:55:23.794Z,99933.86
2018-12-02T00:57:52.991Z,99926.78
2018-12-02T01:00:22.397Z,99929.25
2018-12-02T01:02:51.436Z,99932.19
2018-12-02T01:05:21.618Z,99927.31
2018-12-02T01:07:50.303Z,99920.96
2018-12-02T01:10:19.042Z,99914.46
2018-12-02T01:12:48.477Z,99909.89
2018-12-02T01:15:17.604Z,99909.86
2018-12-02T01:17:46.525Z,99904.98
2018-12-02T01:20:15.797Z,99889.03
2018-12-02T01:22:45.005Z,99887.33
2018-12-02T01:25:13.756Z,99883.66
2018-12-02T01:27:42.781Z,99901.24
2018-12-02T01:30:11.715Z,99880.46
2018-12-02T01:32:40.404Z,99875.95
2018-12-02T01:35:09.065Z,99872.98
2018-12-02T01:37:38.691Z,99872.98
2018-12-02T01:40:07.432Z,99861.86
2018-12-02T01:42:36.967Z,99860.70
2018-12-02T01:45:05.975Z,99861.20
2018-12-02T01:47:35.506Z,99846.27
2018-12-02T01:50:04.205Z,99841.98
2018-12-02T01:52:33.900Z,99840.34
2018-12-02T01:55:03.275Z,99839.31
2018-12-02T01:57:32.771Z,99840.04
2018-12-02T02:00:02.036Z,99845.42
2018-12-02T02:02:31.691Z,99846.76
2018-12-02T02:05:00.946Z,99832.19
2018-12-02T02:07:30.492Z,99827.31
2018-12-02T02:09:59.759Z,99826.39
2018-12-02T02:12:29.299Z,99816.83
2018-12-02T02:14:58.871Z,99805.96
2018-12-02T02:17:28.143Z,99798.58
2018-12-02T02:19:57.595Z,99790.03
2018-12-02T02:22:26.860Z,99796.14
2018-12-02T02:24:56.621Z,99790.34
2018-12-02T02:27:25.881Z,99794.70
2018-12-02T02:29:55.134Z,99794.29
2018-12-02T02:32:24.681Z,99787.98
2018-12-02T02:34:54.124Z,99786.63
2018-12-02T02:37:23.680Z,99784.88
2018-12-02T02:39:52.629Z,99777.05
2018-12-02T02:42:22.030Z,99765.98
2018-12-02T02:44:50.948Z,99763.86
2018-12-02T02:47:20.223Z,99757.13
2018-12-02T02:49:49.724Z,99755.31
2018-12-02T02:52:18.979Z,99744.81
2018-12-02T02:54:48.711Z,99741.92
2018-12-02T02:57:17.988Z,99736.12
2018-12-02T02:59:47.236Z,99738.08
2018-12-02T03:02:16.715Z,99737.19
2018-12-02T03:04:45.966Z,99722.02
2018-12-02T03:07:15.252Z,99725.28
2018-12-02T03:09:44.675Z,99716.48
2018-12-02T03:12:13.951Z,99710.75
2018-12-02T03:14:43.418Z,99700.50
2018-12-02T03:17:12.626Z,99692.15
2018-12-02T03:19:41.963Z,99683.41
2018-12-02T03:22:10.895Z,99690.85
2018-12-02T03:24:40.155Z,99690.65
2018-12-02T03:27:09.423Z,99683.92
2018-12-02T03:29:38.895Z,99690.45
2018-12-02T03:32:08.161Z,99692.78
2018-12-02T03:34:37.702Z,99691.64
2018-12-02T03:37:06.963Z,99683.05
2018-12-02T03:39:36.221Z,99685.74
2018-12-02T03:42:04.920Z,99680.36
2018-12-02T03:44:34.176Z,99681.79
2018-12-02T03:47:03.754Z,99681.00
2018-12-02T03:49:33.293Z,99684.05
2018-12-02T03:52:02.815Z,99688.45
2018-12-02T03:54:32.073Z,99685.45
2018-12-02T03:57:01.492Z,99676.58
2018-12-02T03:59:31.037Z,99679.78
2018-12-02T04:02:00.309Z,99669.17
2018-12-02T04:04:29.296Z,99677.09
2018-12-02T04:06:58.842Z,99675.95
2018-12-02T04:09:27.876Z,99669.42
2018-12-02T04:11:57.152Z,99663.68
2018-12-02T04:14:26.408Z,99664.83
2018-12-02T04:16:55.541Z,99659.59
2018-12-02T04:19:24.516Z,99657.46
2018-12-02T04:21:54.055Z,99655.28
2018-12-02T04:24:23.596Z,99646.97
2018-12-02T04:26:53.004Z,99653.06
2018-12-02T04:29:22.444Z,99648.75
2018-12-02T04:31:52.839Z,99640.88
2018-12-02T04:34:22.408Z,99636.84
2018-12-02T04:36:51.972Z,99638.34
2018-12-02T04:39:22.309Z,99643.01
2018-12-02T04:41:51.577Z,99630.03
2018-12-02T04:44:22.363Z,99636.44
2018-12-02T04:46:52.098Z,99636.52
2018-12-02T04:49:22.313Z,99617.95
2018-12-02T04:51:51.614Z,99617.55
2018-12-02T04:54:22.757Z,99618.73
2018-12-02T04:56:52.507Z,99614.22
2018-12-02T04:59:22.888Z,99611.86
2018-12-02T05:01:52.959Z,99607.63
2018-12-02T05:04:22.069Z,99604.92
2018-12-02T05:06:51.327Z,99601.05
2018-12-02T05:09:20.766Z,99598.36
2018-12-02T05:11:50.231Z,99587.44
2018-12-02T05:14:19.492Z,99588.14
2018-12-02T05:16:49.039Z,99582.13
2018-12-02T05:19:18.291Z,99579.55
2018-12-02T05:21:48.033Z,99580.42
2018-12-02T05:24:17.267Z,99572.44
2018-12-02T05:26:46.542Z,99565.55
2018-12-02T05:29:16.075Z,99560.83
2018-12-02T05:31:45.323Z,99559.81
2018-12-02T05:34:14.585Z,99554.73
2018-12-02T05:36:43.851Z,99563.25
2018-12-02T05:39:13.195Z,99555.45
2018-12-02T05:41:42.219Z,99548.88
2018-12-02T05:44:11.468Z,99551.37
2018-12-02T05:46:40.390Z,99557.98
2018-12-02T05:49:09.651Z,99555.73
2018-12-02T05:51:39.178Z,99549.71
2018-12-02T05:54:08.449Z,99541.95
2018-12-02T05:56:37.700Z,99548.03
2018-12-02T05:59:06.886Z,99530.08
2018-12-02T06:01:36.443Z,99537.20
2018-12-02T06:04:05.375Z,99530.71
2018-12-02T06:06:35.196Z,99525.33
2018-12-02T06:09:03.665Z,99524.03
2018-12-02T06:11:32.641Z,99526.01
2018-12-02T06:14:02.301Z,99519.44
2018-12-02T06:16:31.647Z,99511.73
2018-12-02T06:19:01.160Z,99513.86
2018-12-02T06:21:30.664Z,99511.25
2018-12-02T06:24:00.232Z,99502.90
2018-12-02T06:26:30.185Z,99508.99
2018-12-02T06:28:59.621Z,99501.99
2018-12-02T06:31:29.164Z,99507.41
2018-12-02T06:33:58.436Z,99502.39
2018-12-02T06:36:27.971Z,99496.30
2018-12-02T06:38:57.312Z,99497.02
2018-12-02T06:41:26.222Z,99493.49
2018-12-02T06:43:55.499Z,99496.86
2018-12-02T06:46:24.751Z,99497.80
2018-12-02T06:48:53.898Z,99495.50
2018-12-02T06:51:23.426Z,99492.02
2018-12-02T06:53:52.689Z,99494.58
2018-12-02T06:56:22.752Z,99487.66
2018-12-02T06:58:52.047Z,99488.52
2018-12-02T07:01:22.448Z,99487.73
2018-12-02T07:03:51.412Z,99486.88
2018-12-02T07:06:21.220Z,99488.88
2018-12-02T07:08:50.482Z,99484.13
2018-12-02T07:11:19.732Z,99483.63
2018-12-02T07:13:49.327Z,99477.06
2018-12-02T07:16:18.578Z,99478.05
2018-12-02T07:18:48.155Z,99472.59
2018-12-02T07:21:17.127Z,99471.61
2018-12-02T07:23:47.800Z,99473.31
2018-12-02T07:26:17.380Z,99463.23
2018-12-02T07:28:46.648Z,99460.19
2018-12-02T07:31:15.896Z,99460.70
2018-12-02T07:33:45.166Z,99453.35
2018-12-02T07:36:30.763Z,99453.91
2018-12-02T07:39:17.540Z,99446.32
2018-12-02T07:41:46.781Z,99439.20
2018-12-02T07:44:16.917Z,99437.58
2018-12-02T07:46:46.448Z,99433.06
2018-12-02T07:49:15.719Z,99440.98
2018-12-02T07:51:44.977Z,99440.14
2018-12-02T07:54:14.545Z,99437.58
2018-12-02T07:56:43.796Z,99435.75
2018-12-02T07:59:13.380Z,99426.47
2018-12-02T08:01:42.631Z,99421.95
2018-12-02T08:04:11.892Z,99423.34
2018-12-02T08:06:41.380Z,99420.19
2018-12-02T08:09:10.640Z,99404.69
2018-12-02T08:11:39.899Z,99398.48
2018-12-02T08:14:09.440Z,99397.81
2018-12-02T08:16:39.572Z,99403.50
2018-12-02T08:19:08.836Z,99403.78
2018-12-02T08:21:38.579Z,99404.92
2018-12-02T08:24:07.819Z,99403.78
2018-12-02T08:26:37.361Z,99406.90
2018-12-02T08:29:06.877Z,99402.20
2018-12-02T08:31:37.355Z,99399.94
2018-12-02T08:34:06.587Z,99396.11
2018-12-02T08:36:35.724Z,99393.34
2018-12-02T08:39:04.415Z,99392.19
2018-12-02T08:41:37.748Z,99396.58
2018-12-02T08:44:06.721Z,99394.56
2018-12-02T08:46:35.665Z,99396.14
2018-12-02T08:49:04.576Z,99386.57
2018-12-02T08:51:33.572Z,99391.31
2018-12-02T08:54:03.124Z,99387.95
2018-12-02T08:56:32.768Z,99380.05
2018-12-02T08:59:02.792Z,99386.77
2018-12-02T09:01:32.158Z,99384.23
2018-12-02T09:04:01.875Z,99386.05
2018-12-02T09:06:31.140Z,99379.88
2018-12-02T09:09:00.700Z,99383.63
2018-12-02T09:11:30.096Z,99375.41
2018-12-02T09:13:59.958Z,99376.27
2018-12-02T09:16:29.540Z,99373.75
2018-12-02T09:18:58.841Z,99371.89
2018-12-02T09:21:28.730Z,99362.28
2018-12-02T09:23:57.996Z,99370.09
2018-12-02T09:26:27.269Z,99364.72
2018-12-02T09:28:56.612Z,99365.07
2018-12-02T09:31:26.171Z,99363.18
2018-12-02T09:33:55.726Z,99363.30
2018-12-02T09:36:25.018Z,99366.86
2018-12-02T09:38:54.343Z,99362.03
2018-12-02T09:41:24.155Z,99359.19
2018-12-02T09:43:53.620Z,99357.71
2018-12-02T09:46:23.087Z,99355.69
2018-12-02T09:48:52.606Z,99356.56
2018-12-02T09:51:23.099Z,99344.80
2018-12-02T09:53:51.991Z,99343.30
2018-12-02T09:56:23.385Z,99338.56
2018-12-02T09:58:52.383Z,99330.49
2018-12-02T10:01:23.879Z,99328.67
2018-12-02T10:03:53.527Z,99319.73
2018-12-02T10:06:23.039Z,99313.88
2018-12-02T10:08:51.980Z,99320.79
2018-12-02T10:11:20.904Z,99315.25
2018-12-02T10:13:50.171Z,99310.58
2018-12-02T10:16:19.632Z,99312.98
2018-12-02T10:18:48.895Z,99315.18
2018-12-02T10:21:18.172Z,99313.20
2018-12-02T10:23:47.711Z,99301.95
2018-12-02T10:26:17.159Z,99303.30
2018-12-02T10:28:46.763Z,99294.36
2018-12-02T10:31:16.027Z,99302.49
2018-12-02T10:33:45.347Z,99294.42
2018-12-02T10:36:14.935Z,99286.00
2018-12-02T10:38:44.197Z,99287.83
2018-12-02T10:41:14.656Z,99290.38
2018-12-02T10:43:43.932Z,99282.13
2018-12-02T10:46:13.452Z,99273.54
2018-12-02T10:48:42.140Z,99272.70
2018-12-02T10:51:11.417Z,99263.77
2018-12-02T10:53:40.948Z,99263.83
2018-12-02T10:56:09.994Z,99267.70
2018-12-02T10:58:39.138Z,99253.20
2018-12-02T11:01:07.863Z,99254.06
2018-12-02T11:03:37.062Z,99260.63
2018-12-02T11:06:06.011Z,99254.95
2018-12-02T11:08:35.278Z,99255.16
2018-12-02T11:11:04.255Z,99246.98
2018-12-02T11:13:33.799Z,99252.41
2018-12-02T11:16:02.796Z,99251.59
2018-12-02T11:18:32.340Z,99250.79
2018-12-02T11:21:01.612Z,99242.38
2018-12-02T11:23:31.118Z,99239.20
2018-12-02T11:26:00.855Z,99243.73
2018-12-02T11:28:30.799Z,99246.94
2018-12-02T11:31:00.059Z,99232.02
2018-12-02T11:33:29.330Z,99242.97
2018-12-02T11:35:58.536Z,99243.50
2018-12-02T11:38:28.096Z,99238.98
2018-12-02T11:40:58.268Z,99232.78
2018-12-02T11:43:27.857Z,99237.64
2018-12-02T11:45:57.107Z,99236.13
2018-12-02T11:48:26.643Z,99241.56
2018-12-02T11:50:56.077Z,99248.83
2018-12-02T11:53:25.524Z,99246.02
2018-12-02T11:55:54.804Z,99240.63
2018-12-02T11:58:24.310Z,99247.71
2018-12-02T12:00:53.876Z,99248.05
2018-12-02T12:03:23.323Z,99246.24
2018-12-02T12:05:52.164Z,99244.91
2018-12-02T12:08:20.807Z,99238.56
2018-12-02T12:10:50.258Z,99234.05
2018-12-02T12:13:19.517Z,99235.79
2018-12-02T12:15:48.511Z,99232.45
2018-12-02T12:18:18.050Z,99231.80
2018-12-02T12:20:47.326Z,99234.88
2018-12-02T12:23:16.700Z,99229.84
2018-12-02T12:25:45.705Z,99230.02
2018-12-02T12:28:15.046Z,99236.28
2018-12-02T12:30:44.031Z,99228.53
2018-12-02T12:33:13.625Z,99233.41
2018-12-02T12:35:43.197Z,99228.19
2018-12-02T12:38:12.448Z,99232.58
2018-12-02T12:40:41.693Z,99229.38
2018-12-02T12:43:10.851Z,99229.58
2018-12-02T12:45:40.375Z,99231.58
2018-12-02T12:48:09.649Z,99226.05
2018-12-02T12:50:38.900Z,99219.80
2018-12-02T12:53:08.156Z,99227.54
2018-12-02T12:55:37.427Z,99226.40
2018-12-02T12:58:06.394Z,99220.17
2018-12-02T13:00:35.914Z,99217.34
2018-12-02T13:03:04.771Z,99219.34
2018-12-02T13:05:34.331Z,99217.17
2018-12-02T13:08:03.592Z,99215.34
2018-12-02T13:10:33.142Z,99220.77
2018-12-02T13:13:02.422Z,99224.63
2018-12-02T13:15:31.680Z,99224.63
2018-12-02T13:18:00.776Z,99219.06
2018-12-02T13:20:30.321Z,99223.80
2018-12-02T13:23:00.085Z,99226.33
2018-12-02T13:25:29.168Z,99224.48
2018-12-02T13:27:58.096Z,99220.47
2018-12-02T13:30:27.120Z,99223.86
2018-12-02T13:32:56.050Z,99224.86
2018-12-02T13:35:25.205Z,99226.41
2018-12-02T13:37:55.097Z,99229.63
2018-12-02T13:40:25.810Z,99227.61
2018-12-02T13:42:55.023Z,99229.64
2018-12-02T13:45:24.249Z,99233.20
2018-12-02T13:47:53.182Z,99226.10
2018-12-02T13:50:23.543Z,99229.66
2018-12-02T13:52:53.102Z,99236.25
2018-12-02T13:55:23.259Z,99231.70
2018-12-02T13:57:52.528Z,99232.91
2018-12-02T14:00:23.444Z,99238.98
2018-12-02T14:02:52.712Z,99237.84
2018-12-02T14:05:23.637Z,99238.48
2018-12-02T14:07:52.916Z,99243.05
2018-12-02T14:10:23.580Z,99238.85
2018-12-02T14:12:52.511Z,99242.41
2018-12-02T14:15:21.672Z,99241.22
2018-12-02T14:17:50.992Z,99240.55
2018-12-02T14:20:20.311Z,99246.80
2018-12-02T14:22:49.576Z,99256.91
2018-12-02T14:25:18.857Z,99253.20
2018-12-02T14:27:48.386Z,99247.98
2018-12-02T14:30:17.327Z,99252.70
2018-12-02T14:32:46.365Z,99269.75
2018-12-02T14:35:15.783Z,99267.55
2018-12-02T14:37:45.308Z,99267.41
2018-12-02T14:40:14.403Z,99267.92
2018-12-02T14:42:43.337Z,99268.42
2018-12-02T14:45:12.276Z,99269.59
2018-12-02T14:47:41.663Z,99266.72
2018-12-02T14:50:10.866Z,99272.13
2018-12-02T14:52:39.909Z,99270.77
2018-12-02T14:55:08.908Z,99275.84
2018-12-02T14:57:38.471Z,99277.36
2018-12-02T15:00:06.939Z,99273.14
2018-12-02T15:02:36.374Z,99280.05
2018-12-02T15:05:05.070Z,99277.02
2018-12-02T15:07:34.526Z,99284.47
2018-12-02T15:10:03.212Z,99280.41
2018-12-02T15:12:32.776Z,99281.77
2018-12-02T15:15:02.329Z,99283.27
2018-12-02T15:17:31.692Z,99287.67
2018-12-02T15:20:01.012Z,99282.08
2018-12-02T15:22:30.329Z,99292.23
2018-12-02T15:24:59.575Z,99302.17
2018-12-02T15:27:28.860Z,99301.84
2018-12-02T15:29:58.444Z,99296.10
2018-12-02T15:32:27.919Z,99304.89
2018-12-02T15:34:57.451Z,99304.73
2018-12-02T15:37:27.191Z,99308.76
2018-12-02T15:39:56.665Z,99308.76
2018-12-02T15:42:25.716Z,99307.59
2018-12-02T15:44:54.704Z,99306.92
2018-12-02T15:47:24.440Z,99313.34
2018-12-02T15:49:53.709Z,99319.76
2018-12-02T15:52:23.870Z,99315.36
2018-12-02T15:54:53.135Z,99323.13
2018-12-02T15:57:22.632Z,99331.24
2018-12-02T15:59:51.920Z,99332.59
2018-12-02T16:02:21.701Z,99337.83
2018-12-02T16:04:50.984Z,99334.29
2018-12-02T16:07:20.282Z,99345.77
2018-12-02T16:09:49.673Z,99343.41
2018-12-02T16:12:18.972Z,99340.70
2018-12-02T16:14:51.720Z,99345.59
2018-12-02T16:17:17.809Z,99345.59
2018-12-02T16:19:46.745Z,99345.11
2018-12-02T16:22:16.023Z,99348.30
2018-12-02T16:24:45.568Z,99348.81
2018-12-02T16:27:14.847Z,99352.89
2018-12-02T16:29:44.104Z,99345.95
2018-12-02T16:32:13.652Z,99354.75
2018-12-02T16:34:42.929Z,99359.13
2018-12-02T16:37:12.237Z,99358.96
2018-12-02T16:39:41.793Z,99366.55
2018-12-02T16:42:11.067Z,99364.86
2018-12-02T16:44:40.676Z,99368.75
2018-12-02T16:47:09.973Z,99373.14
2018-12-02T16:49:39.236Z,99375.02
2018-12-02T16:52:08.828Z,99375.18
2018-12-02T16:54:38.099Z,99378.55
2018-12-02T16:57:07.372Z,99377.72
2018-12-02T16:59:36.936Z,99375.16
2018-12-02T17:02:05.882Z,99378.03
2018-12-02T17:04:35.436Z,99376.37
2018-12-02T17:07:04.272Z,99383.78
2018-12-02T17:09:34.551Z,99387.69
2018-12-02T17:12:04.232Z,99388.86
2018-12-02T17:14:38.718Z,99386.16
2018-12-02T17:17:03.240Z,99388.84
2018-12-02T17:19:32.788Z,99390.40
2018-12-02T17:22:02.104Z,99387.86
2018-12-02T17:24:31.292Z,99398.66
2018-12-02T17:27:00.756Z,99388.86
2018-12-02T17:29:31.489Z,99385.84
2018-12-02T17:32:00.646Z,99391.39
2018-12-02T17:34:30.058Z,99395.62
2018-12-02T17:37:00.275Z,99403.91
2018-12-02T17:39:29.899Z,99407.61
2018-12-02T17:42:03.157Z,99410.32
2018-12-02T17:44:33.275Z,99409.63
2018-12-02T17:47:02.792Z,99406.08
2018-12-02T17:49:32.344Z,99407.11
2018-12-02T17:52:02.851Z,99406.59
2018-12-02T17:54:32.415Z,99417.92
2018-12-02T17:57:01.948Z,99409.29
2018-12-02T17:59:31.349Z,99420.79
2018-12-02T18:02:00.864Z,99411.65
2018-12-02T18:04:30.136Z,99422.11
2018-12-02T18:06:59.392Z,99421.95
2018-12-02T18:09:29.331Z,99417.20
2018-12-02T18:11:59.060Z,99421.95
2018-12-02T18:14:28.825Z,99417.23
2018-12-02T18:16:58.089Z,99424.81
2018-12-02T18:19:27.403Z,99437.33
2018-12-02T18:21:56.972Z,99431.58
2018-12-02T18:24:26.300Z,99431.25
2018-12-02T18:26:55.845Z,99435.83
2018-12-02T18:29:25.167Z,99435.30
2018-12-02T18:31:54.416Z,99446.14
2018-12-02T18:34:24.388Z,99437.34
2018-12-02T18:36:53.359Z,99440.20
2018-12-02T18:39:24.901Z,99440.73
2018-12-02T18:41:54.148Z,99438.86
2018-12-02T18:44:24.376Z,99440.06
2018-12-02T18:46:53.579Z,99435.66
2018-12-02T18:49:24.309Z,99443.10
2018-12-02T18:51:53.560Z,99437.21
2018-12-02T18:54:24.044Z,99444.80
2018-12-02T18:56:53.316Z,99443.63
2018-12-02T18:59:22.712Z,99441.75
2018-12-02T19:01:51.964Z,99433.98
2018-12-02T19:04:21.229Z,99430.76
2018-12-02T19:06:50.144Z,99439.73
2018-12-02T19:09:19.092Z,99434.66
2018-12-02T19:11:48.334Z,99434.30
2018-12-02T19:14:17.600Z,99431.60
2018-12-02T19:16:46.972Z,99437.01
2018-12-02T19:19:15.921Z,99446.65
2018-12-02T19:21:45.166Z,99450.36
2018-12-02T19:24:14.220Z,99440.90
2018-12-02T19:26:43.473Z,99447.14
2018-12-02T19:29:13.100Z,99450.52
2018-12-02T19:31:42.311Z,99445.11
2018-12-02T19:34:11.565Z,99454.23
2018-12-02T19:36:40.581Z,99461.51
2018-12-02T19:39:09.589Z,99454.55
2018-12-02T19:41:38.730Z,99457.11
2018-12-02T19:44:08.234Z,99462.31
2018-12-02T19:46:37.443Z,99463.66
2018-12-02T19:49:06.412Z,99456.25
2018-12-02T19:51:35.963Z,99462.00
2018-12-02T19:54:05.159Z,99463.17
2018-12-02T19:56:34.186Z,99472.98
2018-12-02T19:59:03.102Z,99471.28
2018-12-02T20:01:32.451Z,99459.29
2018-12-02T20:04:01.756Z,99457.77
2018-12-02T20:06:31.003Z,99459.95
2018-12-02T20:09:00.500Z,99448.62
2018-12-02T20:11:30.000Z,99450.98
2018-12-02T20:13:59.437Z,99447.45
2018-12-02T20:16:28.681Z,99449.16
2018-12-02T20:18:57.950Z,99454.21
2018-12-02T20:21:27.277Z,99454.39
2018-12-02T20:23:56.293Z,99457.26
2018-12-02T20:26:25.749Z,99455.25
2018-12-02T20:28:54.687Z,99458.61
2018-12-02T20:31:24.270Z,99455.76
2018-12-02T20:33:53.534Z,99453.20
2018-12-02T20:36:22.787Z,99453.55
2018-12-02T20:38:52.343Z,99452.53
2018-12-02T20:41:21.640Z,99454.58
2018-12-02T20:43:50.882Z,99458.28
2018-12-02T20:46:20.439Z,99456.10
2018-12-02T20:48:49.689Z,99458.97
2018-12-02T20:51:25.196Z,99458.80
2018-12-02T20:53:54.492Z,99460.49
2018-12-02T20:56:25.165Z,99464.03
2018-12-02T20:58:54.603Z,99462.19
2018-12-02T21:01:24.895Z,99465.38
2018-12-02T21:06:34.023Z,99459.31
2018-12-02T21:09:03.293Z,99465.23
2018-12-02T21:11:32.562Z,99466.76
2018-12-02T21:14:01.818Z,99466.75
2018-12-02T21:16:31.079Z,99468.79
2018-12-02T21:19:00.604Z,99453.92
2018-12-02T21:21:30.151Z,99460.19
2018-12-02T21:23:59.732Z,99464.73
2018-12-02T21:26:29.013Z,99463.20
2018-12-02T21:28:58.552Z,99465.25
2018-12-02T21:31:28.109Z,99461.54
2018-12-02T21:33:58.406Z,99455.95
2018-12-02T21:36:27.908Z,99463.73
2018-12-02T21:38:57.160Z,99449.86
2018-12-02T21:41:26.715Z,99461.02
2018-12-02T21:43:55.962Z,99456.62
2018-12-02T21:46:25.233Z,99460.19
2018-12-02T21:48:54.654Z,99458.32
2018-12-02T21:51:25.044Z,99451.87
2018-12-02T21:53:54.641Z,99455.28
2018-12-02T21:56:25.053Z,99449.70
2018-12-02T21:58:54.628Z,99455.61
2018-12-02T22:01:25.024Z,99447.50
2018-12-02T22:03:54.578Z,99447.50
2018-12-02T22:06:24.703Z,99448.51
2018-12-02T22:08:53.956Z,99445.46
2018-12-02T22:11:23.219Z,99450.73
2018-12-02T22:13:52.675Z,99444.63
2018-12-02T22:16:21.941Z,99449.55
2018-12-02T22:18:51.189Z,99445.48
2018-12-02T22:21:21.880Z,99442.44
2018-12-02T22:23:51.344Z,99441.25
2018-12-02T22:26:20.331Z,99437.37
2018-12-02T22:28:49.475Z,99436.17
2018-12-02T22:31:18.824Z,99440.56
2018-12-02T22:33:48.074Z,99436.37
2018-12-02T22:36:17.344Z,99436.02
2018-12-02T22:38:46.818Z,99437.72
2018-12-02T22:41:16.991Z,99429.27
2018-12-02T22:43:45.915Z,99430.96
2018-12-02T22:46:15.225Z,99436.69
2018-12-02T22:48:44.738Z,99425.53
2018-12-02T22:51:13.693Z,99427.89
2018-12-02T22:53:43.191Z,99437.03
2018-12-02T22:56:12.521Z,99427.91
2018-12-02T22:58:42.063Z,99430.09
2018-12-02T23:04:10.540Z,99439.91
2018-12-02T23:06:40.291Z,99439.05
2018-12-02T23:09:08.719Z,99434.16
2018-12-02T23:11:38.167Z,99430.27
2018-12-02T23:14:07.096Z,99434.15
2018-12-02T23:16:36.406Z,99428.42
2018-12-02T23:19:05.517Z,99426.06
2018-12-02T23:21:35.113Z,99427.56
2018-12-02T23:24:04.146Z,99436.02
2018-12-02T23:26:33.873Z,99439.58
2018-12-02T23:29:08.354Z,99438.57
2018-12-02T23:31:32.973Z,99439.92
2018-12-02T23:34:01.909Z,99440.93
2018-12-02T23:36:31.173Z,99431.13
2018-12-02T23:39:00.462Z,99428.59
2018-12-02T23:41:29.505Z,99433.66
2018-12-02T23:43:59.390Z,99418.94
2018-12-02T23:46:29.235Z,99422.50
2018-12-02T23:48:58.836Z,99422.67
2018-12-02T23:51:28.348Z,99418.27
2018-12-02T23:53:57.606Z,99419.79
2018-12-02T23:56:26.889Z,99415.08
2018-12-02T23:58:56.174Z,99416.74
